createdAt,value
2022-11-27T00:00:10.854Z,18.40
2022-11-27T00:05:58.794Z,21.90
2022-11-27T00:11:22.651Z,23.10
2022-11-27T00:16:44.599Z,25.10
2022-11-27T00:22:06.671Z,23.40
2022-11-27T00:27:28.197Z,27.10
2022-11-27T00:32:50.227Z,26.30
2022-11-27T00:38:12.259Z,28.00
2022-11-27T00:43:43.707Z,27.80
2022-11-27T00:49:07.354Z,28.60
2022-11-27T00:54:29.490Z,27.90
2022-11-27T00:59:51.863Z,27.50
2022-11-27T01:05:13.554Z,23.50
2022-11-27T01:10:35.375Z,21.60
2022-11-27T01:16:05.036Z,21.50
2022-11-27T01:21:31.140Z,21.70
2022-11-27T01:26:52.902Z,20.60
2022-11-27T01:32:14.758Z,24.50
2022-11-27T01:37:36.559Z,24.80
2022-11-27T01:42:58.597Z,23.90
2022-11-27T01:48:20.719Z,20.70
2022-11-27T01:53:42.949Z,24.20
2022-11-27T01:59:04.678Z,23.00
2022-11-27T02:04:26.562Z,23.60
2022-11-27T02:09:48.537Z,23.90
2022-11-27T02:15:43.350Z,25.90
2022-11-27T02:21:16.609Z,25.70
2022-11-27T02:26:55.642Z,26.60
2022-11-27T02:32:26.284Z,28.50
2022-11-27T02:37:53.147Z,29.10
2022-11-27T02:43:27.540Z,30.60
2022-11-27T02:48:55.610Z,26.00
2022-11-27T02:54:20.810Z,26.10
2022-11-27T02:59:43.990Z,27.00
2022-11-27T03:05:07.180Z,28.00
2022-11-27T03:10:49.381Z,26.70
2022-11-27T03:16:29.318Z,29.80
2022-11-27T03:21:54.113Z,27.00
2022-11-27T03:27:21.760Z,26.30
2022-11-27T03:32:43.897Z,26.90
2022-11-27T03:38:05.719Z,39.40
2022-11-27T03:43:30.796Z,34.80
2022-11-27T03:48:59.962Z,24.70
2022-11-27T03:54:50.371Z,23.60
2022-11-27T04:00:13.086Z,23.10
2022-11-27T04:05:34.813Z,28.00
2022-11-27T04:10:56.534Z,28.00
2022-11-27T04:16:19.599Z,33.50
2022-11-27T04:21:44.112Z,26.60
2022-11-27T04:27:05.732Z,30.30
2022-11-27T04:32:27.563Z,30.40
2022-11-27T04:37:49.592Z,32.90
2022-11-27T04:43:11.663Z,28.70
2022-11-27T04:48:33.652Z,24.30
2022-11-27T04:53:55.881Z,19.60
2022-11-27T04:59:17.783Z,22.90
2022-11-27T05:04:40.200Z,23.60
2022-11-27T05:10:02.243Z,23.30
2022-11-27T05:15:24.308Z,17.50
2022-11-27T05:20:46.218Z,20.90
2022-11-27T05:26:08.060Z,19.80
2022-11-27T05:31:29.979Z,25.10
2022-11-27T05:36:52.219Z,23.50
2022-11-27T05:42:14.551Z,22.20
2022-11-27T05:47:36.548Z,26.40
2022-11-27T05:52:58.051Z,26.30
2022-11-27T05:58:20.567Z,24.70
2022-11-27T06:03:42.337Z,25.80
2022-11-27T06:09:09.268Z,23.00
2022-11-27T06:14:35.346Z,24.20
2022-11-27T06:19:57.391Z,27.10
2022-11-27T06:25:19.116Z,22.80
2022-11-27T06:30:40.746Z,27.90
2022-11-27T06:36:04.385Z,29.20
2022-11-27T06:41:27.515Z,33.00
2022-11-27T06:46:49.254Z,30.30
2022-11-27T06:52:11.174Z,23.60
2022-11-27T06:57:33.001Z,27.00
2022-11-27T07:02:56.057Z,26.80
2022-11-27T07:08:18.163Z,30.40
2022-11-27T07:13:40.094Z,30.40
2022-11-27T07:19:05.412Z,26.80
2022-11-27T07:24:27.463Z,24.90
2022-11-27T07:29:49.292Z,24.50
2022-11-27T07:35:11.530Z,24.20
2022-11-27T07:40:33.053Z,22.60
2022-11-27T07:45:55.246Z,22.50
2022-11-27T07:51:19.520Z,17.40
2022-11-27T07:56:41.069Z,25.70
2022-11-27T08:02:03.077Z,25.10
2022-11-27T08:07:31.119Z,30.80
2022-11-27T08:12:53.056Z,23.60
2022-11-27T08:18:14.792Z,23.00
2022-11-27T08:23:36.917Z,25.70
2022-11-27T08:28:59.004Z,80.20
2022-11-27T08:34:21.006Z,44.20
2022-11-27T08:39:43.507Z,36.10
2022-11-27T08:45:05.737Z,28.30
2022-11-27T08:50:27.866Z,31.60
2022-11-27T08:55:49.799Z,38.60
2022-11-27T09:01:15.341Z,29.50
2022-11-27T09:06:41.081Z,31.40
2022-11-27T09:12:03.117Z,28.00
2022-11-27T09:17:25.040Z,30.90
2022-11-27T09:22:47.078Z,46.40
2022-11-27T09:28:09.064Z,31.60
2022-11-27T09:33:33.465Z,34.00
2022-11-27T09:38:55.266Z,28.50
2022-11-27T09:44:29.543Z,26.70
2022-11-27T09:49:59.195Z,25.80
2022-11-27T09:55:32.474Z,20.20
2022-11-27T10:00:54.256Z,18.80
2022-11-27T10:06:30.774Z,29.60
2022-11-27T10:12:09.964Z,47.10
2022-11-27T10:17:41.701Z,25.60
2022-11-27T10:23:05.335Z,21.30
2022-11-27T10:28:43.392Z,23.40
2022-11-27T10:34:18.724Z,23.90
2022-11-27T10:39:45.475Z,15.60
2022-11-27T10:45:16.470Z,31.50
2022-11-27T10:50:38.762Z,25.80
2022-11-27T10:56:06.627Z,20.20
2022-11-27T11:01:40.464Z,29.00
2022-11-27T11:07:02.733Z,21.40
2022-11-27T11:12:24.747Z,19.70
2022-11-27T11:17:46.579Z,27.10
2022-11-27T11:23:19.855Z,26.10
2022-11-27T11:28:49.087Z,23.00
2022-11-27T11:34:27.284Z,17.00
2022-11-27T11:40:01.065Z,16.40
2022-11-27T11:45:22.983Z,15.80
2022-11-27T11:50:59.365Z,19.80
2022-11-27T11:56:34.438Z,18.70
2022-11-27T12:02:15.376Z,12.70
2022-11-27T12:07:55.609Z,18.90
2022-11-27T12:13:42.547Z,21.30
2022-11-27T12:19:09.342Z,17.50
2022-11-27T12:24:43.566Z,19.00
2022-11-27T12:30:11.569Z,31.80
2022-11-27T12:35:43.582Z,24.90
2022-11-27T12:41:23.662Z,24.80
2022-11-27T12:47:10.390Z,17.50
2022-11-27T12:52:35.336Z,12.50
2022-11-27T12:58:03.538Z,13.00
2022-11-27T13:03:32.134Z,14.50
2022-11-27T13:09:18.972Z,14.20
2022-11-27T13:14:42.225Z,16.50
2022-11-27T13:20:06.734Z,14.90
2022-11-27T13:25:29.459Z,15.00
2022-11-27T13:30:52.249Z,15.20
2022-11-27T13:36:23.956Z,30.60
2022-11-27T13:41:47.293Z,17.00
2022-11-27T13:47:15.839Z,22.10
2022-11-27T13:52:38.472Z,16.60
2022-11-27T13:58:02.658Z,22.40
2022-11-27T14:03:29.654Z,23.20
2022-11-27T14:08:58.169Z,21.70
2022-11-27T14:19:56.852Z,27.00
2022-11-27T14:25:36.516Z,25.20
2022-11-27T14:31:00.498Z,24.70
2022-11-27T14:36:25.594Z,18.90
2022-11-27T14:42:01.680Z,15.40
2022-11-27T14:47:23.969Z,22.70
2022-11-27T14:52:51.168Z,29.30
2022-11-27T14:58:18.960Z,36.60
2022-11-27T15:03:41.397Z,44.70
2022-11-27T15:09:30.386Z,49.10
2022-11-27T15:15:07.097Z,48.20
2022-11-27T15:20:40.663Z,36.50
2022-11-27T15:26:02.562Z,31.50
2022-11-27T15:31:38.771Z,38.70
2022-11-27T15:37:06.233Z,30.50
2022-11-27T15:42:28.351Z,36.00
2022-11-27T15:47:58.310Z,38.60
2022-11-27T15:53:20.189Z,37.80
2022-11-27T15:58:42.731Z,39.90
2022-11-27T16:04:05.085Z,32.60
2022-11-27T16:09:27.263Z,44.40
2022-11-27T16:14:49.223Z,44.80
2022-11-27T16:20:11.599Z,44.30
2022-11-27T16:25:33.326Z,41.50
2022-11-27T16:30:57.080Z,48.90
2022-11-27T16:36:20.564Z,61.50
2022-11-27T16:41:42.290Z,56.30
2022-11-27T16:47:05.346Z,53.50
2022-11-27T16:52:27.748Z,58.50
2022-11-27T16:57:49.444Z,54.60
2022-11-27T17:03:11.551Z,71.40
2022-11-27T17:08:33.675Z,58.60
2022-11-27T17:14:01.402Z,48.40
2022-11-27T17:19:24.127Z,50.40
2022-11-27T17:24:45.893Z,51.60
2022-11-27T17:30:09.291Z,54.60
2022-11-27T17:35:30.992Z,56.40
2022-11-27T17:40:53.297Z,52.60
2022-11-27T17:46:21.480Z,58.10
2022-11-27T17:51:44.959Z,54.80
2022-11-27T17:57:08.531Z,55.90
2022-11-27T18:02:30.320Z,57.60
2022-11-27T18:07:53.446Z,70.90
2022-11-27T18:13:15.897Z,68.20
2022-11-27T18:18:38.484Z,60.30
2022-11-27T18:29:45.133Z,58.10
2022-11-27T18:35:07.533Z,56.20
2022-11-27T18:40:29.359Z,55.60
2022-11-27T18:45:52.810Z,77.40
2022-11-27T18:51:20.912Z,86.20
2022-11-27T18:56:43.127Z,87.90
2022-11-27T19:02:05.335Z,73.60
2022-11-27T19:07:28.175Z,73.20
2022-11-27T19:12:50.409Z,72.60
2022-11-27T19:18:13.093Z,74.80
2022-11-27T19:23:39.109Z,53.00
2022-11-27T19:29:06.510Z,53.70
2022-11-27T19:34:29.166Z,50.20
2022-11-27T19:39:51.497Z,46.10
2022-11-27T19:45:13.252Z,42.20
2022-11-27T19:50:35.005Z,44.80
2022-11-27T19:55:57.022Z,39.90
2022-11-27T20:01:20.491Z,42.30
2022-11-27T20:06:42.680Z,37.60
2022-11-27T20:12:04.950Z,40.60
2022-11-27T20:17:27.927Z,41.00
2022-11-27T20:22:50.471Z,47.70
2022-11-27T20:28:13.133Z,45.30
2022-11-27T20:33:35.953Z,48.50
2022-11-27T20:39:01.922Z,43.50
2022-11-27T20:44:24.472Z,42.00
2022-11-27T20:49:47.337Z,34.70
2022-11-27T20:55:09.209Z,42.80
2022-11-27T21:00:31.311Z,40.50
2022-11-27T21:05:55.072Z,38.30
2022-11-27T21:11:25.339Z,35.60
2022-11-27T21:16:49.076Z,40.10
2022-11-27T21:22:11.276Z,42.20
2022-11-27T21:27:32.858Z,43.30
2022-11-27T21:32:54.749Z,45.40
2022-11-27T21:38:18.559Z,46.60
2022-11-27T21:43:41.219Z,45.00
2022-11-27T21:49:03.159Z,40.30
2022-11-27T21:54:24.814Z,40.10
2022-11-27T21:59:46.347Z,35.60
2022-11-27T22:05:09.041Z,32.20
2022-11-27T22:10:30.665Z,30.80
2022-11-27T22:15:52.595Z,29.80
2022-11-27T22:21:16.230Z,26.50
2022-11-27T22:26:38.359Z,29.30
2022-11-27T22:32:00.190Z,27.50
2022-11-27T22:37:22.034Z,25.90
2022-11-27T22:42:43.904Z,30.90
2022-11-27T22:48:06.380Z,34.50
2022-11-27T22:53:28.178Z,32.00
2022-11-27T22:59:06.033Z,28.40
2022-11-27T23:04:36.551Z,25.00
2022-11-27T23:09:58.582Z,26.70
2022-11-27T23:15:20.710Z,25.30
2022-11-27T23:20:43.447Z,23.30
2022-11-27T23:26:06.177Z,24.60
2022-11-27T23:31:31.416Z,22.60
2022-11-27T23:36:53.646Z,23.70
2022-11-27T23:42:15.493Z,23.00
2022-11-27T23:47:37.509Z,22.70
2022-11-27T23:52:59.434Z,20.70
2022-11-27T23:58:21.564Z,19.30
